Dunwoody, GA (30338)

11:36 PM EDT op 17 september 2014 (GMT -0400)
Wyntercreek/Meadowcreek | Change Station
CLOSE
Current Station
Persoonlijk weerstation
Location: Dunwoody, GA
Geometrische hoogte: 1072 ft
Nabije weerstations

Hoogte 1072 ft 33.95 °N, 84.33 °W | Updated 18 seconds ago

Helder
Helder
61.2 °F
Voelt als 61.2 °F
N
0.0
Wind Variabel Wind van NNW
Gusts 0.0 mijl/u

Vandaag
Hoog -- | Laag -- °F
--% Kans op neerslag
Gisteren
Hoog -- | Laag -- °F
Precip. -- inches
7:21 AM 7:41 PM
Afnemende halvemaan, 30% visible
Druk 29.92 inches
Zicht 10.0 mijlen
Wolken Helder
Dauwpunt 35 °F
Vochtigheid 44%
Neerslag -999.00 inches
Dikte sneeuw Niet beschikbaar.
UV 0 van de 12
Pollen 8.80 van de 12
Ozon Goed
PM2.5 Goed
Flu Activity Niet beschikbaar.
METAR KPDK 180253Z AUTO 00000KT 10SM CLR 18/14 A2995 RMK AO2 SLP132 T01780139 51010

More Conditions Fewer Conditions

Druk 29.92 inches
Zicht 10.0 mijlen
Wolken Helder
Dauwpunt 35 °F
Vochtigheid 44%
Neerslag -999.00 inches
Dikte sneeuw Niet beschikbaar.
UV 0 van de 12
Pollen 8.80 van de 12
Ozon Goed
PM2.5 Goed
Flu Activity Niet beschikbaar.
METAR KPDK 180253Z AUTO 00000KT 10SM CLR 18/14 A2995 RMK AO2 SLP132 T01780139 51010

More Conditions Fewer Conditions

10-Day Weather Forecast

Almanac

Astronomie

Sep. 17, 2014 Opkomst Ondergang
Werkelijke tijd 7:21 AM EDT 7:41 PM EDT
Burgerlijke schemering 6:56 AM EDT 8:05 PM EDT
Nautische schemering 6:27 AM EDT 8:35 PM EDT
Astronomische schemering 5:57 AM EDT 9:04 PM EDT
Maan 1:32 AM EDT (9/17) 3:39 PM EDT (9/17)
Golflengte van het zichtbare licht 13h 09m
Daglengte
12h 19m
Tomorrow will be 2m 6s shorter.
Afnemende halvemaan, 30% of the Moon is Illuminated
Vandaag
Afnemende halvemaan
sep 24
Nieuw
oktober 1
Eerste kwartier
oktober 8
Volle maan
oktober 15
Laatste kwartier

Extremen vandaag

State Highs State Lows

Community

WunderPhotos

Upload Photos

1,754,283 foto’s ge-upload!

Nearby

Luchtkwaliteit

  Luchtkwaliteit LK-index Verontreinigende stof
Gisteren Goed
PM10
Gisteren Goed
OZONE
Actueel Goed
PM2.5
Actueel Goed
OZONE
woensdag Matig
PM2.5
woensdag Goed
OZONE
donderdag Matig
PM2.5
donderdag Goed
OZONE

Dikte sneeuw

Station Depth Geometrische hoogte
Er is geen verse sneeuw gerapporteerd.

Aardbevingen

Stad Distance Mag. Time & Date
No recent earthquake activity has been reported nearby.
Minimum magnitude displayed is 2.5.

Watertemperatuur langs de kust

Plaats Temperatuur
Geen meldingen van stations

Nabije weerstations